createdAt,value
2023-04-06T00:00:10.593Z,1.5764
2023-04-06T00:01:11.809Z,1.5577
2023-04-06T00:02:12.847Z,1.5350
2023-04-06T00:03:13.516Z,1.5054
2023-04-06T00:04:13.572Z,1.4770
2023-04-06T00:05:14.869Z,1.4645
2023-04-06T00:06:17.212Z,1.4399
2023-04-06T00:07:17.412Z,1.4096
2023-04-06T00:08:18.435Z,1.3809
2023-04-06T00:09:18.765Z,1.3595
2023-04-06T00:10:19.779Z,1.3405
2023-04-06T00:11:21.029Z,1.3078
2023-04-06T00:12:22.077Z,1.2970
2023-04-06T00:13:23.356Z,1.2762
2023-04-06T00:14:24.377Z,1.2488
2023-04-06T00:15:25.743Z,1.2243
2023-04-06T00:16:29.027Z,1.2055
2023-04-06T00:17:27.537Z,1.1809
2023-04-06T00:18:27.573Z,1.1791
2023-04-06T00:19:28.992Z,1.1861
2023-04-06T00:20:30.376Z,1.1818
2023-04-06T00:21:31.330Z,1.1755
2023-04-06T00:22:32.704Z,1.1680
2023-04-06T00:23:33.603Z,1.1521
2023-04-06T00:24:35.208Z,1.1514
2023-04-06T00:25:36.344Z,1.1551
2023-04-06T00:26:37.655Z,1.1358
2023-04-06T00:27:38.779Z,1.1329
2023-04-06T00:28:39.267Z,1.1184
2023-04-06T00:29:40.667Z,1.1250
2023-04-06T00:30:41.623Z,1.1260
2023-04-06T00:31:42.958Z,1.1096
2023-04-06T00:32:44.325Z,1.1158
2023-04-06T00:33:44.227Z,1.1005
2023-04-06T00:34:44.414Z,1.0838
2023-04-06T00:35:45.856Z,1.0586
2023-04-06T00:36:47.050Z,1.0365
2023-04-06T00:37:48.487Z,1.0283
2023-04-06T00:38:49.626Z,1.0396
2023-04-06T00:39:51.149Z,1.0236
2023-04-06T00:40:52.311Z,1.0076
2023-04-06T00:41:53.684Z,1.0000
2023-04-06T00:42:55.105Z,0.9795
2023-04-06T00:43:56.327Z,0.9786
2023-04-06T00:44:57.714Z,0.9707
2023-04-06T00:45:59.048Z,0.9560
2023-04-06T00:47:00.315Z,0.9576
2023-04-06T00:48:01.889Z,0.9425
2023-04-06T00:49:01.792Z,0.9375
2023-04-06T00:50:02.302Z,0.9233
2023-04-06T00:51:03.683Z,0.9018
2023-04-06T00:52:04.896Z,0.8854
2023-04-06T00:53:06.107Z,0.8671
2023-04-06T00:54:07.195Z,0.8643
2023-04-06T00:55:08.413Z,0.8557
2023-04-06T00:56:09.536Z,0.8697
2023-04-06T00:57:10.676Z,0.9567
2023-04-06T00:58:12.281Z,1.0101
2023-04-06T00:59:13.347Z,1.1597
2023-04-06T01:00:13.757Z,1.1514
2023-04-06T01:01:15.114Z,1.1926
2023-04-06T01:02:15.331Z,1.2141
2023-04-06T01:03:15.323Z,1.2075
2023-04-06T01:04:16.572Z,1.1963
2023-04-06T01:05:16.755Z,1.1938
2023-04-06T01:06:16.828Z,1.1984
2023-04-06T01:07:18.405Z,1.1711
2023-04-06T01:08:19.522Z,1.1709
2023-04-06T01:09:20.059Z,1.1444
2023-04-06T01:10:21.257Z,1.1334
2023-04-06T01:11:22.411Z,1.1075
2023-04-06T01:12:23.458Z,1.0812
2023-04-06T01:13:24.728Z,1.0594
2023-04-06T01:14:26.023Z,1.0504
2023-04-06T01:15:27.315Z,1.0341
2023-04-06T01:16:28.641Z,1.0244
2023-04-06T01:17:28.681Z,1.0027
2023-04-06T01:18:29.102Z,0.9752
2023-04-06T01:19:30.594Z,0.9444
2023-04-06T01:20:31.717Z,0.9105
2023-04-06T01:21:32.954Z,0.8756
2023-04-06T01:22:33.807Z,0.8415
2023-04-06T01:23:35.029Z,0.8132
2023-04-06T01:24:36.107Z,0.7918
2023-04-06T01:25:37.380Z,0.7574
2023-04-06T01:26:38.424Z,0.7200
2023-04-06T01:27:39.785Z,0.6919
2023-04-06T01:28:41.048Z,0.6630
2023-04-06T01:29:41.418Z,0.6406
2023-04-06T01:30:42.561Z,0.6131
2023-04-06T01:31:42.949Z,0.5955
2023-04-06T01:32:44.138Z,0.5714
2023-04-06T01:33:44.479Z,0.5502
2023-04-06T01:34:45.537Z,0.5159
2023-04-06T01:35:46.942Z,0.4918
2023-04-06T01:36:48.158Z,0.4905
2023-04-06T01:37:49.491Z,0.4679
2023-04-06T01:38:50.558Z,0.4163
2023-04-06T01:39:51.777Z,0.3945
2023-04-06T01:40:52.902Z,0.3644
2023-04-06T01:41:52.942Z,0.3313
2023-04-06T01:42:54.222Z,0.3083
2023-04-06T01:44:55.071Z,0.4458
2023-04-06T01:45:56.357Z,0.5457
2023-04-06T01:46:56.735Z,0.5215
2023-04-06T01:47:56.900Z,0.4598
2023-04-06T01:48:58.283Z,0.4313
2023-04-06T01:49:58.334Z,0.4006
2023-04-06T01:50:59.571Z,0.3582
2023-04-06T01:52:00.808Z,0.3229
2023-04-06T01:53:00.894Z,0.2877
2023-04-06T01:54:02.198Z,0.2541
2023-04-06T01:55:03.314Z,0.2243
2023-04-06T01:56:04.695Z,0.2126
2023-04-06T01:57:05.832Z,0.1836
2023-04-06T01:58:07.326Z,0.1594
2023-04-06T01:59:08.789Z,0.1338
2023-04-06T02:00:09.024Z,0.1093
2023-04-06T02:01:09.109Z,0.0807
2023-04-06T02:02:10.534Z,0.0563
2023-04-06T02:03:11.445Z,0.0365
2023-04-06T02:04:11.952Z,0.0193
2023-04-06T02:05:13.010Z,-0.0016
2023-04-06T02:06:14.412Z,-0.0171
2023-04-06T02:07:15.635Z,-0.0372
2023-04-06T02:09:15.961Z,-0.0683
2023-04-06T02:10:15.968Z,-0.0712
2023-04-06T02:11:17.243Z,-0.0908
2023-04-06T02:12:18.514Z,-0.1044
2023-04-06T02:13:19.803Z,-0.1273
2023-04-06T02:14:19.977Z,-0.1265
2023-04-06T02:15:21.047Z,-0.1258
2023-04-06T02:16:22.462Z,-0.1351
2023-04-06T02:17:23.816Z,-0.1067
2023-04-06T02:18:24.654Z,-0.0086
2023-04-06T02:19:25.729Z,-0.0293
2023-04-06T02:20:25.783Z,-0.0533
2023-04-06T02:21:26.891Z,-0.0800
2023-04-06T02:22:28.413Z,-0.1019
2023-04-06T02:23:29.544Z,-0.1283
2023-04-06T02:24:29.733Z,-0.1483
2023-04-06T02:25:29.607Z,-0.1701
2023-04-06T02:26:30.868Z,-0.2013
2023-04-06T02:27:30.975Z,-0.2479
2023-04-06T02:28:31.213Z,-0.2431
2023-04-06T02:29:32.489Z,-0.1542
2023-04-06T02:30:32.431Z,-0.1355
2023-04-06T02:31:33.789Z,-0.1620
2023-04-06T02:32:34.130Z,-0.1881
2023-04-06T02:33:35.478Z,-0.2098
2023-04-06T02:34:36.867Z,-0.2324
2023-04-06T02:35:38.273Z,-0.2491
2023-04-06T02:36:38.307Z,-0.2624
2023-04-06T02:37:38.400Z,-0.2419
2023-04-06T02:38:38.514Z,-0.2025
2023-04-06T02:39:39.645Z,-0.2218
2023-04-06T02:40:41.225Z,-0.2329
2023-04-06T02:41:42.345Z,-0.2384
2023-04-06T02:42:43.671Z,-0.2475
2023-04-06T02:43:45.008Z,-0.2659
2023-04-06T02:44:46.273Z,-0.2785
2023-04-06T02:45:47.463Z,-0.2963
2023-04-06T02:46:47.538Z,-0.3081
2023-04-06T02:47:48.636Z,-0.3220
2023-04-06T02:48:50.170Z,-0.3277
2023-04-06T02:49:50.040Z,-0.3530
2023-04-06T02:50:51.388Z,-0.3695
2023-04-06T02:51:52.495Z,-0.3791
2023-04-06T02:52:52.555Z,-0.3906
2023-04-06T02:53:53.803Z,-0.4171
2023-04-06T02:55:54.749Z,-0.4445
2023-04-06T02:56:54.817Z,-0.4571
2023-04-06T02:57:56.109Z,-0.4760
2023-04-06T02:58:56.343Z,-0.4901
2023-04-06T02:59:56.389Z,-0.5160
2023-04-06T03:00:56.494Z,-0.5248
2023-04-06T03:01:57.354Z,-0.5390
2023-04-06T03:03:07.417Z,-0.5513
2023-04-06T03:04:17.785Z,-0.5682
2023-04-06T03:05:27.474Z,-0.5806
2023-04-06T03:06:49.642Z,-0.5993
2023-04-06T03:07:29.038Z,-0.6080
2023-04-06T03:09:14.805Z,-0.6139
2023-04-06T03:09:31.054Z,-0.6329
2023-04-06T03:10:32.320Z,-0.6356
2023-04-06T03:11:33.684Z,-0.6438
2023-04-06T03:12:34.807Z,-0.6548
2023-04-06T03:13:36.057Z,-0.6666
2023-04-06T03:14:37.563Z,-0.6694
2023-04-06T03:15:37.607Z,-0.6839
2023-04-06T03:16:38.014Z,-0.6865
2023-04-06T03:17:39.151Z,-0.6936
2023-04-06T03:18:39.515Z,-0.7022
2023-04-06T03:19:40.521Z,-0.7105
2023-04-06T03:20:41.001Z,-0.7168
2023-04-06T03:21:41.050Z,-0.7155
2023-04-06T03:22:42.286Z,-0.7271
2023-04-06T03:23:42.383Z,-0.7198
2023-04-06T03:24:43.497Z,-0.7174
2023-04-06T03:25:44.882Z,-0.7309
2023-04-06T03:26:46.029Z,-0.7241
2023-04-06T03:28:47.004Z,-0.7345
2023-04-06T03:29:48.342Z,-0.7399
2023-04-06T03:30:49.607Z,-0.7374
2023-04-06T03:31:49.758Z,-0.7377
2023-04-06T03:32:51.162Z,-0.7399
2023-04-06T03:33:51.352Z,-0.7389
2023-04-06T03:34:52.525Z,-0.7551
2023-04-06T03:35:52.915Z,-0.7349
2023-04-06T03:37:03.228Z,-0.7299
2023-04-06T03:37:54.626Z,-0.7466
2023-04-06T03:38:54.654Z,-0.7173
2023-04-06T03:39:55.902Z,-0.7045
2023-04-06T03:40:57.371Z,-0.7135
2023-04-06T03:41:58.565Z,-0.7206
2023-04-06T03:42:58.631Z,-0.6983
2023-04-06T03:43:59.814Z,-0.7074
2023-04-06T03:45:01.157Z,-0.7007
2023-04-06T03:46:02.354Z,-0.7043
2023-04-06T03:47:02.651Z,-0.7148
2023-04-06T03:48:02.794Z,-0.7368
2023-04-06T03:49:02.909Z,-0.7349
2023-04-06T03:50:03.237Z,-0.7452
2023-04-06T03:51:03.341Z,-0.7635
2023-04-06T03:52:04.432Z,-0.7857
2023-04-06T03:53:04.502Z,-0.7954
2023-04-06T03:54:05.666Z,-0.8141
2023-04-06T03:55:06.955Z,-0.8123
2023-04-06T03:56:08.263Z,-0.8154
2023-04-06T03:57:08.238Z,-0.8365
2023-04-06T03:58:09.413Z,-0.8297
2023-04-06T03:59:10.670Z,-0.8321
2023-04-06T04:00:10.868Z,-0.8414
2023-04-06T04:01:11.019Z,-0.8450
2023-04-06T04:02:11.191Z,-0.8572
2023-04-06T04:03:12.096Z,-0.8714
2023-04-06T04:04:13.255Z,-0.8749
2023-04-06T04:05:14.583Z,-0.8802
2023-04-06T04:06:14.638Z,-0.8792
2023-04-06T04:07:15.758Z,-0.8835
2023-04-06T04:08:17.079Z,-0.8997
2023-04-06T04:09:17.579Z,-0.9149
2023-04-06T04:10:18.809Z,-0.9177
2023-04-06T04:11:20.058Z,-0.9201
2023-04-06T04:12:21.344Z,-0.9305
2023-04-06T04:13:22.517Z,-0.9303
2023-04-06T04:14:23.814Z,-0.9478
2023-04-06T04:15:25.076Z,-0.9529
2023-04-06T04:16:25.258Z,-0.9390
2023-04-06T04:17:25.466Z,-0.9354
2023-04-06T04:18:25.553Z,-0.9298
2023-04-06T04:19:25.998Z,-0.9281
2023-04-06T04:20:27.314Z,-0.9403
2023-04-06T04:21:28.479Z,-0.9301
2023-04-06T04:22:29.792Z,-0.9170
2023-04-06T04:23:30.914Z,-0.9072
2023-04-06T04:24:31.578Z,-0.9010
2023-04-06T04:25:32.685Z,-0.8952
2023-04-06T04:26:34.035Z,-0.8940
2023-04-06T04:27:35.160Z,-0.9054
2023-04-06T04:28:36.525Z,-0.8811
2023-04-06T04:29:37.029Z,-0.8756
2023-04-06T04:30:38.339Z,-0.8642
2023-04-06T04:31:39.530Z,-0.8798
2023-04-06T04:32:39.546Z,-0.8855
2023-04-06T04:33:40.865Z,-0.9001
2023-04-06T04:34:41.996Z,-0.9052
2023-04-06T04:35:42.204Z,-0.9119
2023-04-06T04:36:43.491Z,-0.9117
2023-04-06T04:38:44.820Z,-0.9259
2023-04-06T04:39:45.356Z,-0.9059
2023-04-06T04:40:46.659Z,-0.8166
2023-04-06T04:42:47.677Z,-0.8247
2023-04-06T04:43:49.136Z,-0.8333
2023-04-06T04:44:50.216Z,-0.8352
2023-04-06T04:46:51.374Z,-0.8228
2023-04-06T04:47:51.563Z,-0.8287
2023-04-06T04:48:52.795Z,-0.8402
2023-04-06T04:49:54.046Z,-0.8606
2023-04-06T04:50:55.194Z,-0.8739
2023-04-06T04:51:56.565Z,-0.8719
2023-04-06T04:52:57.805Z,-0.8865
2023-04-06T04:53:58.673Z,-0.8973
2023-04-06T04:54:59.813Z,-0.9014
2023-04-06T04:56:01.133Z,-0.9101
2023-04-06T04:57:02.302Z,-0.9131
2023-04-06T04:58:02.311Z,-0.9188
2023-04-06T04:59:03.612Z,-0.9276
2023-04-06T05:00:04.150Z,-0.9392
2023-04-06T05:01:05.445Z,-0.9502
2023-04-06T05:02:06.294Z,-0.9591
2023-04-06T05:03:06.881Z,-0.9631
2023-04-06T05:04:07.961Z,-0.9590
2023-04-06T05:05:09.237Z,-0.9470
2023-04-06T05:06:12.864Z,-0.9415
2023-04-06T05:07:11.898Z,-0.9353
2023-04-06T05:08:12.063Z,-0.9428
2023-04-06T05:09:13.305Z,-0.9372
2023-04-06T05:10:13.355Z,-0.9266
2023-04-06T05:11:14.678Z,-0.9141
2023-04-06T05:12:14.693Z,-0.9110
2023-04-06T05:13:15.956Z,-0.9154
2023-04-06T05:14:16.780Z,-0.9260
2023-04-06T05:15:17.020Z,-0.9318
2023-04-06T05:16:17.386Z,-0.9054
2023-04-06T05:17:17.441Z,-0.8398
2023-04-06T05:18:17.673Z,-0.8400
2023-04-06T05:19:18.459Z,-0.8336
2023-04-06T05:20:18.478Z,-0.8361
2023-04-06T05:21:19.706Z,-0.8305
2023-04-06T05:22:21.059Z,-0.8575
2023-04-06T05:23:21.215Z,-0.8511
2023-04-06T05:24:22.516Z,-0.8255
2023-04-06T05:25:22.876Z,-0.8181
2023-04-06T05:28:25.390Z,-0.7676
2023-04-06T05:29:25.860Z,-0.7712
2023-04-06T05:30:26.542Z,-0.7577
2023-04-06T05:31:27.893Z,-0.7532
2023-04-06T05:32:28.152Z,-0.7511
2023-04-06T05:33:28.354Z,-0.7553
2023-04-06T05:34:28.795Z,-0.7683
2023-04-06T05:35:28.769Z,-0.7810
2023-04-06T05:36:28.772Z,-0.7586
2023-04-06T05:37:30.051Z,-0.7557
2023-04-06T05:38:30.412Z,-0.7442
2023-04-06T05:39:30.333Z,-0.7263
2023-04-06T05:40:30.542Z,-0.6915
2023-04-06T05:41:31.912Z,-0.6868
2023-04-06T05:42:32.285Z,-0.6401
2023-04-06T05:43:33.681Z,-0.6134
2023-04-06T05:44:33.748Z,-0.5871
2023-04-06T05:45:35.203Z,-0.5799
2023-04-06T05:46:36.591Z,-0.5774
2023-04-06T05:47:36.720Z,-0.5699
2023-04-06T05:48:37.088Z,-0.5770
2023-04-06T05:49:37.379Z,-0.5387
2023-04-06T05:50:39.061Z,-0.5277
2023-04-06T05:51:39.106Z,-0.5201
2023-04-06T05:52:40.446Z,-0.4799
2023-04-06T05:53:40.996Z,-0.4516
2023-04-06T05:54:42.264Z,-0.3965
2023-04-06T05:55:43.639Z,-0.3609
2023-04-06T05:56:44.876Z,-0.2907
2023-04-06T05:57:45.078Z,-0.2135
2023-04-06T05:58:45.142Z,-0.1770
2023-04-06T05:59:45.392Z,-0.1547
2023-04-06T06:00:46.611Z,-0.1387
2023-04-06T06:01:46.841Z,-0.0049
2023-04-06T06:02:47.512Z,0.0901
2023-04-06T06:03:47.760Z,0.0843
2023-04-06T06:04:49.038Z,0.0825
2023-04-06T06:05:49.669Z,0.0940
2023-04-06T06:06:50.198Z,0.1020
2023-04-06T06:07:51.531Z,0.1010
2023-04-06T06:08:51.601Z,0.1068
2023-04-06T06:09:51.787Z,0.1480
2023-04-06T06:10:51.937Z,0.1493
2023-04-06T06:11:53.164Z,0.1418
2023-04-06T06:12:53.334Z,0.1433
2023-04-06T06:13:53.339Z,0.1396
2023-04-06T06:14:54.830Z,0.1448
2023-04-06T06:15:54.886Z,0.1345
2023-04-06T06:16:55.190Z,0.1498
2023-04-06T06:17:55.318Z,0.2349
2023-04-06T06:18:55.636Z,0.3137
2023-04-06T06:19:56.054Z,0.3703
2023-04-06T06:20:56.293Z,0.5097
2023-04-06T06:21:57.729Z,0.6344
2023-04-06T06:22:58.925Z,0.6901
2023-04-06T06:23:59.332Z,0.7578
2023-04-06T06:25:00.462Z,0.8275
2023-04-06T06:26:00.808Z,0.9071
2023-04-06T06:27:01.119Z,0.9588
2023-04-06T06:28:01.396Z,1.0449
2023-04-06T06:29:02.758Z,1.0898
2023-04-06T06:30:02.811Z,1.1905
2023-04-06T06:31:03.879Z,1.2587
2023-04-06T06:32:04.241Z,1.2946
2023-04-06T06:33:04.439Z,1.3268
2023-04-06T06:34:04.508Z,1.3588
2023-04-06T06:35:05.865Z,1.4004
2023-04-06T06:36:06.121Z,1.4231
2023-04-06T06:37:06.328Z,1.4540
2023-04-06T06:38:06.444Z,1.4775
2023-04-06T06:39:07.106Z,1.5541
2023-04-06T06:40:07.110Z,1.6095
2023-04-06T06:41:07.229Z,1.6790
2023-04-06T06:42:07.319Z,1.7440
2023-04-06T06:43:07.723Z,1.7848
2023-04-06T06:44:09.352Z,1.8325
2023-04-06T06:45:09.569Z,1.8650
2023-04-06T06:46:09.880Z,1.9300
2023-04-06T06:47:09.928Z,1.9884
2023-04-06T06:48:10.276Z,2.0066
2023-04-06T06:49:10.790Z,2.0324
2023-04-06T06:50:12.135Z,2.0273
2023-04-06T06:51:12.180Z,2.0842
2023-04-06T06:52:13.449Z,2.1523
2023-04-06T06:53:13.760Z,2.2480
2023-04-06T06:54:15.022Z,2.4100
2023-04-06T06:55:15.200Z,2.5975
2023-04-06T06:56:16.506Z,2.7136
2023-04-06T06:57:16.803Z,2.7878
2023-04-06T06:58:18.054Z,2.8856
2023-04-06T06:59:18.434Z,2.9234
2023-04-06T07:00:19.339Z,2.9894
2023-04-06T07:01:19.590Z,3.0161
2023-04-06T07:02:19.928Z,3.0186
2023-04-06T07:03:20.379Z,3.0357
2023-04-06T07:04:21.455Z,3.0414
2023-04-06T07:05:29.185Z,3.0696
2023-04-06T07:06:29.373Z,3.0894
2023-04-06T07:07:30.742Z,3.1384
2023-04-06T07:08:30.975Z,3.1655
2023-04-06T07:09:32.164Z,3.2193
2023-04-06T07:10:33.677Z,3.1902
2023-04-06T07:11:34.068Z,3.1725
2023-04-06T07:12:36.530Z,3.2123
2023-04-06T07:13:37.782Z,3.1521
2023-04-06T07:14:37.862Z,3.1708
2023-04-06T07:15:39.093Z,3.1963
2023-04-06T07:16:40.230Z,3.2240
2023-04-06T07:17:40.435Z,3.3141
2023-04-06T07:18:40.620Z,3.3646
2023-04-06T07:19:41.974Z,3.4118
2023-04-06T07:20:43.428Z,3.4930
2023-04-06T07:21:44.753Z,3.5570
2023-04-06T07:22:46.324Z,3.5764
2023-04-06T07:23:46.409Z,3.6698
2023-04-06T07:24:47.009Z,3.7795
2023-04-06T07:25:47.013Z,3.8488
2023-04-06T07:26:47.284Z,3.9271
2023-04-06T07:27:47.255Z,4.0548
2023-04-06T07:28:47.207Z,4.2253
2023-04-06T07:29:47.592Z,4.2855
2023-04-06T07:30:47.601Z,4.3194
2023-04-06T07:31:48.312Z,4.3883
2023-04-06T07:32:48.994Z,4.6115
2023-04-06T07:33:49.026Z,4.6993
2023-04-06T07:34:49.112Z,4.7502
2023-04-06T07:35:49.740Z,4.8423
2023-04-06T07:36:50.607Z,4.7324
2023-04-06T07:37:51.967Z,4.6642
2023-04-06T07:38:52.535Z,4.6649
2023-04-06T07:39:53.722Z,4.6361
2023-04-06T07:40:53.969Z,4.7412
2023-04-06T07:41:54.218Z,4.7822
2023-04-06T07:42:56.176Z,4.7337
2023-04-06T07:43:55.363Z,4.8049
2023-04-06T07:44:55.889Z,4.7814
2023-04-06T07:45:55.941Z,4.8093
2023-04-06T07:46:56.390Z,4.7659
2023-04-06T07:47:56.791Z,4.7576
2023-04-06T07:48:57.113Z,4.8421
2023-04-06T07:49:57.147Z,4.7652
2023-04-06T07:50:57.170Z,4.6973
2023-04-06T07:51:57.444Z,4.7234
2023-04-06T07:52:57.420Z,4.7661
2023-04-06T07:53:58.862Z,4.7762
2023-04-06T07:54:59.413Z,4.7076
2023-04-06T07:56:00.731Z,4.7087
2023-04-06T07:57:00.785Z,4.7035
2023-04-06T07:58:00.877Z,4.6570
2023-04-06T07:59:02.075Z,4.6805
2023-04-06T08:00:02.287Z,4.6668
2023-04-06T08:01:02.501Z,4.6344
2023-04-06T08:02:02.594Z,4.6564
2023-04-06T08:03:03.676Z,4.6602
2023-04-06T08:04:03.913Z,4.6696
2023-04-06T08:05:04.041Z,4.7006
2023-04-06T08:06:04.292Z,4.7013
2023-04-06T08:07:04.626Z,4.7152
2023-04-06T08:08:04.628Z,4.7366
2023-04-06T08:09:04.987Z,4.7536
2023-04-06T08:10:06.401Z,4.7530
2023-04-06T08:11:06.576Z,4.7589
2023-04-06T08:12:06.876Z,4.7779
2023-04-06T08:13:06.956Z,4.8104
2023-04-06T08:14:07.387Z,4.8063
2023-04-06T08:15:08.103Z,4.8214
2023-04-06T08:16:08.733Z,4.8156
2023-04-06T08:17:09.500Z,4.8308
2023-04-06T08:18:09.727Z,4.8638
2023-04-06T08:19:11.364Z,4.8669
2023-04-06T08:20:11.700Z,4.9123
2023-04-06T08:21:11.691Z,4.9440
2023-04-06T08:22:11.952Z,4.9505
2023-04-06T08:23:12.588Z,4.9372
2023-04-06T08:24:13.497Z,4.9805
2023-04-06T08:25:13.501Z,4.9820
2023-04-06T08:26:13.697Z,4.9775
2023-04-06T08:27:13.748Z,4.9647
2023-04-06T08:28:15.177Z,4.9567
2023-04-06T08:29:15.636Z,4.9866
2023-04-06T08:30:17.026Z,5.0491
2023-04-06T08:31:17.594Z,5.1204
2023-04-06T08:32:17.776Z,5.1900
2023-04-06T08:33:18.171Z,5.2697
2023-04-06T08:34:19.383Z,5.2716
2023-04-06T08:35:19.574Z,5.3281
2023-04-06T08:36:19.947Z,5.3537
2023-04-06T08:37:21.270Z,5.3610
2023-04-06T08:38:21.468Z,5.4294
2023-04-06T08:39:21.447Z,5.4493
2023-04-06T08:40:21.677Z,5.4508
2023-04-06T08:41:22.319Z,5.5236
2023-04-06T08:42:23.680Z,5.5943
2023-04-06T08:43:23.750Z,5.6151
2023-04-06T08:44:25.085Z,5.6125
2023-04-06T08:45:25.475Z,5.5985
2023-04-06T08:46:25.894Z,5.6107
2023-04-06T08:47:26.255Z,5.6429
2023-04-06T08:48:26.909Z,5.6651
2023-04-06T08:49:27.150Z,5.7106
2023-04-06T08:50:28.565Z,5.7041
2023-04-06T08:51:30.165Z,5.7536
2023-04-06T08:52:31.533Z,5.8087
2023-04-06T08:53:32.005Z,5.7874
2023-04-06T08:54:32.154Z,5.8743
2023-04-06T08:55:33.693Z,5.9597
2023-04-06T08:56:35.038Z,5.9789
2023-04-06T08:57:36.723Z,5.9780
2023-04-06T08:58:38.546Z,5.9750
2023-04-06T08:59:37.661Z,6.0403
2023-04-06T09:00:38.227Z,6.1407
2023-04-06T09:01:39.264Z,6.2177
2023-04-06T09:02:40.069Z,6.2355
2023-04-06T09:03:41.143Z,6.2316
2023-04-06T09:04:42.318Z,6.2904
2023-04-06T09:05:42.521Z,6.3992
2023-04-06T09:06:42.735Z,6.4520
2023-04-06T09:07:42.825Z,6.4200
2023-04-06T09:08:42.982Z,6.3823
2023-04-06T09:09:43.080Z,6.3825
2023-04-06T09:10:43.415Z,6.3858
2023-04-06T09:11:44.763Z,6.3742
2023-04-06T09:12:45.124Z,6.3787
2023-04-06T09:13:45.334Z,6.4052
2023-04-06T09:14:45.466Z,6.5326
2023-04-06T09:15:45.718Z,6.6299
2023-04-06T09:16:46.509Z,6.6113
2023-04-06T09:17:46.924Z,6.7053
2023-04-06T09:18:47.255Z,6.7133
2023-04-06T09:19:47.351Z,6.7246
2023-04-06T09:20:47.701Z,6.7770
2023-04-06T09:21:47.869Z,6.7546
2023-04-06T09:22:48.284Z,6.7786
2023-04-06T09:23:48.506Z,6.8323
2023-04-06T09:24:49.292Z,6.9137
2023-04-06T09:25:49.662Z,6.9329
2023-04-06T09:26:50.057Z,6.9222
2023-04-06T09:27:50.158Z,6.9202
2023-04-06T09:28:50.402Z,7.0509
2023-04-06T09:29:50.506Z,7.0195
2023-04-06T09:30:50.974Z,7.0881
2023-04-06T09:31:51.334Z,7.0318
2023-04-06T09:32:52.469Z,6.9830
2023-04-06T09:33:52.954Z,7.0247
2023-04-06T09:34:53.870Z,6.9683
2023-04-06T09:35:54.123Z,7.0137
2023-04-06T09:36:54.667Z,7.0677
2023-04-06T09:37:54.688Z,7.0694
2023-04-06T09:38:54.953Z,7.3035
2023-04-06T09:39:55.008Z,7.3372
2023-04-06T09:41:01.818Z,7.3543
2023-04-06T09:42:01.936Z,7.2665
2023-04-06T09:43:02.193Z,7.4406
2023-04-06T09:44:02.334Z,7.4465
2023-04-06T09:45:02.638Z,7.4501
2023-04-06T09:46:02.750Z,7.5047
2023-04-06T09:47:03.891Z,7.5459
2023-04-06T09:48:04.019Z,7.5238
2023-04-06T09:49:04.544Z,7.5609
2023-04-06T09:50:05.213Z,7.5935
2023-04-06T09:51:05.497Z,7.6031
2023-04-06T09:52:07.008Z,7.6698
2023-04-06T09:53:07.237Z,7.6697
2023-04-06T09:54:07.742Z,7.6242
2023-04-06T09:55:08.310Z,7.5775
2023-04-06T09:56:08.581Z,7.5564
2023-04-06T09:57:08.997Z,7.5231
2023-04-06T09:58:09.367Z,7.4640
2023-04-06T09:59:10.461Z,7.4931
2023-04-06T10:00:11.501Z,7.5786
2023-04-06T10:01:12.013Z,7.5421
2023-04-06T10:02:12.509Z,7.4789
2023-04-06T10:03:13.401Z,7.5424
2023-04-06T10:04:14.881Z,7.6467
2023-04-06T10:05:15.661Z,7.7768
2023-04-06T10:06:15.817Z,7.9185
2023-04-06T10:07:16.151Z,7.9082
2023-04-06T10:08:17.099Z,7.8022
2023-04-06T10:09:17.304Z,7.8147
2023-04-06T10:10:17.597Z,7.8183
2023-04-06T10:11:18.080Z,8.0055
2023-04-06T10:12:18.236Z,8.2338
2023-04-06T10:13:18.361Z,8.1718
2023-04-06T10:14:18.632Z,8.1953
2023-04-06T10:15:20.304Z,8.1131
2023-04-06T10:16:19.486Z,7.9945
2023-04-06T10:17:19.850Z,7.8264
2023-04-06T10:18:20.493Z,7.7694
2023-04-06T10:19:20.700Z,7.7661
2023-04-06T10:20:20.873Z,7.7940
2023-04-06T10:21:21.926Z,7.7750
2023-04-06T10:22:22.199Z,7.7279
2023-04-06T10:23:22.567Z,7.7300
2023-04-06T10:24:22.724Z,7.7999
2023-04-06T10:25:22.808Z,7.8738
2023-04-06T10:26:22.942Z,7.9250
2023-04-06T10:27:24.762Z,7.9381
2023-04-06T10:28:23.950Z,7.9600
2023-04-06T10:29:24.143Z,8.0322
2023-04-06T10:30:24.217Z,8.0526
2023-04-06T10:31:24.740Z,8.1798
2023-04-06T10:32:25.132Z,8.1722
2023-04-06T10:33:25.475Z,8.2188
2023-04-06T10:34:25.653Z,8.1710
2023-04-06T10:35:25.676Z,8.3103
2023-04-06T10:36:26.164Z,8.4594
2023-04-06T10:37:26.452Z,8.4089
2023-04-06T10:38:26.506Z,8.4824
2023-04-06T10:39:26.845Z,8.4839
2023-04-06T10:40:27.041Z,8.5718
2023-04-06T10:41:27.289Z,8.5106
2023-04-06T10:42:27.376Z,8.3983
2023-04-06T10:46:14.319Z,8.6282
2023-04-06T10:47:14.583Z,8.5489
2023-04-06T10:48:14.873Z,8.4801
2023-04-06T10:49:14.884Z,8.5201
2023-04-06T10:50:14.976Z,8.4870
2023-04-06T10:51:15.034Z,8.5431
2023-04-06T10:52:15.078Z,8.6076
2023-04-06T10:53:15.232Z,8.6708
2023-04-06T10:54:16.368Z,8.7432
2023-04-06T10:55:16.529Z,8.8184
2023-04-06T10:56:16.810Z,8.8909
2023-04-06T10:57:18.076Z,8.8074
2023-04-06T10:58:18.185Z,8.7891
2023-04-06T10:59:18.388Z,8.9244
2023-04-06T11:00:18.728Z,9.0238
2023-04-06T11:01:19.133Z,9.1732
2023-04-06T11:02:19.389Z,9.1936
2023-04-06T11:03:19.725Z,9.2488
2023-04-06T11:04:20.162Z,9.1483
2023-04-06T11:05:20.112Z,9.1944
2023-04-06T11:06:20.245Z,9.1973
2023-04-06T11:07:20.390Z,9.2105
2023-04-06T11:08:21.534Z,9.2988
2023-04-06T11:09:21.657Z,9.2987
2023-04-06T11:10:21.616Z,9.2720
2023-04-06T11:11:21.904Z,9.3850
2023-04-06T11:12:21.998Z,9.4399
2023-04-06T11:13:22.058Z,9.2918
2023-04-06T11:14:22.164Z,9.4184
2023-04-06T11:15:22.757Z,9.3961
2023-04-06T11:16:22.842Z,9.3858
2023-04-06T11:17:23.849Z,9.3650
2023-04-06T11:18:24.368Z,9.5063
2023-04-06T11:19:24.971Z,9.3990
2023-04-06T11:20:25.058Z,9.4098
2023-04-06T11:21:26.270Z,9.5047
2023-04-06T11:22:26.754Z,9.6574
2023-04-06T11:23:26.842Z,9.6673
2023-04-06T11:24:26.914Z,9.8920
2023-04-06T11:25:27.039Z,9.9879
2023-04-06T11:26:27.778Z,9.9608
2023-04-06T11:27:27.818Z,10.0225
2023-04-06T11:28:29.095Z,9.8007
2023-04-06T11:29:29.434Z,9.9118
2023-04-06T11:30:30.626Z,10.0123
2023-04-06T11:31:31.192Z,9.8014
2023-04-06T11:32:31.334Z,9.7998
2023-04-06T11:33:31.561Z,9.9407
2023-04-06T11:34:31.750Z,9.9958
2023-04-06T11:35:31.829Z,9.6334
2023-04-06T11:36:33.127Z,9.6098
2023-04-06T11:37:33.225Z,9.7628
2023-04-06T11:38:34.573Z,9.7070
2023-04-06T11:39:35.823Z,9.8288
2023-04-06T11:40:37.108Z,9.7440
2023-04-06T11:41:37.278Z,9.7402
2023-04-06T11:42:37.580Z,9.7953
2023-04-06T11:43:37.665Z,9.9736
2023-04-06T11:44:37.778Z,9.9758
2023-04-06T11:45:37.915Z,10.1631
2023-04-06T11:46:38.210Z,10.2620
2023-04-06T11:47:38.361Z,10.3781
2023-04-06T11:48:39.154Z,10.2845
2023-04-06T11:49:39.627Z,10.3389
2023-04-06T11:50:41.126Z,10.3143
2023-04-06T11:51:42.374Z,10.3101
2023-04-06T11:52:42.572Z,10.5888
2023-04-06T11:53:43.740Z,10.5027
2023-04-06T11:54:44.001Z,10.4455
2023-04-06T11:55:44.310Z,10.8230
2023-04-06T11:56:44.542Z,10.9453
2023-04-06T11:57:44.536Z,11.1145
2023-04-06T11:58:45.501Z,11.4389
2023-04-06T11:59:46.659Z,11.6338
2023-04-06T12:00:47.613Z,11.6649
2023-04-06T12:01:47.591Z,11.8315
2023-04-06T12:02:47.794Z,12.1564
2023-04-06T12:03:49.101Z,11.9687
2023-04-06T12:04:49.441Z,12.3950
2023-04-06T12:05:49.414Z,12.3467
2023-04-06T12:06:49.638Z,12.7000
2023-04-06T12:07:49.923Z,12.6218
2023-04-06T12:08:50.298Z,12.2468
2023-04-06T12:09:50.581Z,11.8504
2023-04-06T12:10:50.658Z,12.0809
2023-04-06T12:11:50.922Z,12.5934
2023-04-06T12:12:51.086Z,12.1156
2023-04-06T12:13:52.371Z,11.8527
2023-04-06T12:14:52.553Z,11.9775
2023-04-06T12:15:52.779Z,12.3457
2023-04-06T12:16:53.374Z,12.6240
2023-04-06T12:17:53.947Z,12.6926
2023-04-06T12:18:54.128Z,12.7356
2023-04-06T12:19:54.201Z,13.1083
2023-04-06T12:20:55.207Z,13.3587
2023-04-06T12:21:55.318Z,13.2236
2023-04-06T12:22:55.476Z,12.3101
2023-04-06T12:23:55.734Z,12.3571
2023-04-06T12:24:55.711Z,12.7555
2023-04-06T12:25:56.370Z,13.5059
2023-04-06T12:27:08.772Z,13.5134
2023-04-06T12:27:57.526Z,13.4964
2023-04-06T12:28:57.952Z,12.7931
2023-04-06T12:29:58.152Z,12.3723
2023-04-06T12:30:58.276Z,12.0479
2023-04-06T12:31:59.199Z,12.5421
2023-04-06T12:32:59.746Z,12.9047
2023-04-06T12:34:00.646Z,13.6084
2023-04-06T12:35:00.791Z,14.0362
2023-04-06T12:36:00.877Z,13.8958
2023-04-06T12:37:01.332Z,13.8008
2023-04-06T12:38:01.532Z,14.2658
2023-04-06T12:39:02.779Z,15.4542
2023-04-06T12:40:02.963Z,15.7256